Time;durP1;ratioP1;P1;durP2;ratioP2;P2;SDS_P1;SDS_P2;PMS_P1;PMS_P2;Temp;Humidity;BMP_temperature;BMP_pressure;BME280_temperature;BME280_humidity;BME280_pressure;Samples;Min_cycle;Max_cycle;Signal;HPM_P1;HPM_P2
2023/08/27 00:01:48;;;;;;;3.23;1.73;;;16.30;99.90;;;;;;6140483;23;20731;-75
2023/08/27 00:04:14;;;;;;;2.87;1.40;;;16.20;99.90;;;;;;6141663;23;20204;-76
2023/08/27 00:06:39;;;;;;;1.90;1.40;;;16.20;99.90;;;;;;6142498;23;20214;-75
2023/08/27 00:09:06;;;;;;;2.07;1.87;;;16.10;99.90;;;;;;6146452;23;20184;-74
2023/08/27 00:11:32;;;;;;;2.50;2.10;;;16.10;99.90;;;;;;6117275;23;20198;-73
2023/08/27 00:13:57;;;;;;;2.00;1.70;;;16.10;99.90;;;;;;6115676;23;20375;-72
2023/08/27 00:16:23;;;;;;;2.50;1.70;;;16.10;99.90;;;;;;6140799;23;20132;-72
2023/08/27 00:18:48;;;;;;;2.47;1.43;;;16.10;99.90;;;;;;6115409;23;20441;-72
2023/08/27 00:21:14;;;;;;;2.40;1.50;;;16.20;99.90;;;;;;6116094;23;20200;-75
2023/08/27 00:23:40;;;;;;;3.30;1.97;;;16.30;99.90;;;;;;6115293;23;20152;-74
2023/08/27 00:26:05;;;;;;;2.03;1.67;;;16.30;99.90;;;;;;6112893;23;20144;-74
2023/08/27 00:28:31;;;;;;;2.70;1.80;;;16.30;99.90;;;;;;6139431;23;20124;-72
2023/08/27 00:31:01;;;;;;;2.80;1.83;;;16.30;99.90;;;;;;6139585;23;20261;-73
2023/08/27 00:33:27;;;;;;;3.77;2.53;;;16.30;99.90;;;;;;6112617;23;20163;-72
2023/08/27 00:35:53;;;;;;;3.07;1.57;;;16.30;99.90;;;;;;6115207;23;20381;-74
2023/08/27 00:38:20;;;;;;;2.70;1.73;;;16.30;99.90;;;;;;6111921;23;20800;-75
2023/08/27 00:40:45;;;;;;;3.67;1.70;;;16.30;99.90;;;;;;6090379;23;20581;-75
2023/08/27 00:43:13;;;;;;;2.03;1.60;;;16.30;99.90;;;;;;6114243;23;20191;-74
2023/08/27 00:45:39;;;;;;;2.30;1.80;;;16.30;99.90;;;;;;6090576;23;20379;-73
2023/08/27 00:48:05;;;;;;;3.50;2.33;;;16.20;99.90;;;;;;6112714;23;20378;-73
2023/08/27 00:50:32;;;;;;;3.30;2.80;;;16.20;99.90;;;;;;6112420;23;20404;-74
2023/08/27 00:52:58;;;;;;;2.17;1.63;;;16.20;99.90;;;;;;6113325;23;20831;-73
2023/08/27 00:55:24;;;;;;;2.53;2.10;;;16.20;99.90;;;;;;6140816;23;20360;-75
2023/08/27 00:57:51;;;;;;;3.90;2.63;;;16.10;99.90;;;;;;6088678;23;20813;-73
2023/08/27 01:00:18;;;;;;;3.20;2.23;;;16.10;99.90;;;;;;6138514;23;20184;-72
2023/08/27 01:02:46;;;;;;;3.10;2.27;;;16.00;99.90;;;;;;6112729;23;20383;-73
2023/08/27 01:05:12;;;;;;;3.17;2.43;;;16.00;99.90;;;;;;6114512;23;20369;-74
2023/08/27 01:07:57;;;;;;;4.60;2.80;;;15.90;99.90;;;;;;6115132;23;20415;-73
2023/08/27 01:10:55;;;;;;;4.13;2.80;;;15.90;99.90;;;;;;6114036;23;20413;-74
2023/08/27 01:13:46;;;;;;;3.60;2.63;;;15.90;99.90;;;;;;6113450;23;20371;-73
2023/08/27 01:16:14;;;;;;;4.60;3.37;;;15.80;99.90;;;;;;6112223;23;20800;-74
2023/08/27 01:18:40;;;;;;;3.37;2.37;;;15.70;99.90;;;;;;6112582;23;20372;-72
2023/08/27 01:21:23;;;;;;;3.00;2.40;;;15.70;99.90;;;;;;6114434;23;20430;-75
2023/08/27 01:23:49;;;;;;;3.63;2.80;;;15.60;99.90;;;;;;6113448;23;20375;-73
2023/08/27 01:26:41;;;;;;;3.40;2.37;;;15.50;99.90;;;;;;6087489;23;20363;-71
2023/08/27 01:29:12;;;;;;;3.33;1.93;;;15.50;99.90;;;;;;6117019;23;20151;-71
2023/08/27 01:31:47;;;;;;;3.00;2.20;;;15.40;99.90;;;;;;6111183;23;20499;-74
2023/08/27 01:34:16;;;;;;;2.20;2.00;;;15.40;99.90;;;;;;6113851;23;20372;-73
2023/08/27 01:36:43;;;;;;;3.30;2.23;;;15.30;99.90;;;;;;6113832;23;20379;-72
2023/08/27 01:39:14;;;;;;;3.83;2.50;;;15.30;99.90;;;;;;6113261;23;20379;-73
2023/08/27 01:41:39;;;;;;;3.67;2.97;;;15.30;99.90;;;;;;6136715;23;20419;-72
2023/08/27 01:44:05;;;;;;;2.57;2.33;;;15.30;99.90;;;;;;6138114;23;20348;-74
2023/08/27 01:46:30;;;;;;;2.63;2.17;;;15.30;99.90;;;;;;6137627;23;20162;-74
2023/08/27 01:48:56;;;;;;;2.53;2.10;;;15.30;99.90;;;;;;6139666;23;20147;-75
2023/08/27 01:51:22;;;;;;;2.70;2.30;;;15.30;99.90;;;;;;6089860;23;20179;-72
2023/08/27 01:53:48;;;;;;;2.30;1.40;;;15.30;99.90;;;;;;6141420;23;20132;-72
2023/08/27 01:56:13;;;;;;;3.70;2.30;;;15.30;99.90;;;;;;6113044;23;20156;-72
2023/08/27 01:58:39;;;;;;;3.23;1.90;;;15.20;99.90;;;;;;6136785;23;20151;-72
2023/08/27 02:01:05;;;;;;;3.23;2.40;;;15.20;99.90;;;;;;6111624;23;20226;-74
2023/08/27 02:03:30;;;;;;;8.07;3.37;;;15.20;99.90;;;;;;6139163;23;20516;-72
2023/08/27 02:05:56;;;;;;;4.43;3.13;;;15.30;99.90;;;;;;6114422;23;20144;-74
2023/08/27 02:08:21;;;;;;;3.90;2.23;;;15.30;99.90;;;;;;6139782;23;20179;-74
2023/08/27 02:10:50;;;;;;;3.03;2.73;;;15.30;99.90;;;;;;6111741;23;20208;-73
2023/08/27 02:13:16;;;;;;;3.67;2.93;;;15.30;99.90;;;;;;6136608;23;20163;-71
2023/08/27 02:15:43;;;;;;;3.77;3.07;;;15.40;99.90;;;;;;6111394;23;20411;-72
2023/08/27 02:18:09;;;;;;;7.40;2.93;;;15.40;99.90;;;;;;6111666;23;20372;-72
2023/08/27 02:20:35;;;;;;;5.00;2.90;;;15.40;99.90;;;;;;6111218;23;20418;-73
2023/08/27 02:23:03;;;;;;;3.80;2.63;;;15.40;99.90;;;;;;6111534;23;20148;-72
2023/08/27 02:25:29;;;;;;;3.27;2.90;;;15.40;99.90;;;;;;6110229;23;20391;-72
2023/08/27 02:27:55;;;;;;;5.70;3.00;;;15.40;99.90;;;;;;6112801;23;20376;-72
2023/08/27 02:30:20;;;;;;;4.03;2.90;;;15.40;99.90;;;;;;6111255;23;20445;-71
2023/08/27 02:32:47;;;;;;;3.27;2.97;;;15.40;99.90;;;;;;6111011;23;20148;-74
2023/08/27 02:35:13;;;;;;;5.20;3.20;;;15.40;99.90;;;;;;6087061;23;20368;-73
2023/08/27 02:37:39;;;;;;;4.33;2.90;;;15.30;99.90;;;;;;6109987;23;20431;-73
2023/08/27 02:40:05;;;;;;;2.73;2.33;;;15.30;99.90;;;;;;6111255;23;20203;-73
2023/08/27 02:42:31;;;;;;;3.33;2.60;;;15.30;99.90;;;;;;6110172;23;20140;-72
2023/08/27 02:44:56;;;;;;;3.17;2.50;;;15.30;99.90;;;;;;6136440;23;20439;-73
2023/08/27 02:47:22;;;;;;;2.57;2.20;;;15.20;99.90;;;;;;6138450;23;20136;-72
2023/08/27 02:49:49;;;;;;;2.90;2.40;;;15.10;99.90;;;;;;6135344;23;20241;-72
2023/08/27 02:52:16;;;;;;;3.43;3.13;;;15.10;99.90;;;;;;6136347;23;20379;-73
2023/08/27 02:54:41;;;;;;;3.20;2.07;;;15.00;99.90;;;;;;6136508;23;20387;-73
2023/08/27 02:57:07;;;;;;;3.00;2.50;;;15.00;99.90;;;;;;6109063;23;20376;-72
2023/08/27 02:59:32;;;;;;;3.90;3.27;;;15.00;99.90;;;;;;6108551;23;20156;-70
2023/08/27 03:01:58;;;;;;;4.60;2.70;;;15.00;99.90;;;;;;6108819;23;20152;-72
2023/08/27 03:04:24;;;;;;;3.53;2.30;;;15.00;99.90;;;;;;6107972;23;20163;-72
2023/08/27 03:06:49;;;;;;;3.10;2.17;;;15.00;99.90;;;;;;6108956;23;20510;-72
2023/08/27 03:09:15;;;;;;;3.47;2.50;;;15.00;99.90;;;;;;6134324;23;20184;-72
2023/08/27 03:11:41;;;;;;;2.70;2.23;;;15.00;99.90;;;;;;6108773;23;20222;-72
2023/08/27 03:14:07;;;;;;;3.27;2.67;;;15.00;99.90;;;;;;6108530;23;20380;-71
2023/08/27 03:16:33;;;;;;;3.87;2.10;;;15.00;99.90;;;;;;6109374;23;20156;-71
2023/08/27 03:18:58;;;;;;;3.77;2.50;;;15.00;99.90;;;;;;6135290;23;20638;-72
2023/08/27 03:21:25;;;;;;;2.93;2.13;;;15.00;99.90;;;;;;6108771;23;20266;-71
2023/08/27 03:23:50;;;;;;;4.07;2.03;;;14.90;99.90;;;;;;6109472;23;20159;-72
2023/08/27 03:26:16;;;;;;;2.30;1.80;;;14.90;99.90;;;;;;6110633;23;20441;-72
2023/08/27 03:28:41;;;;;;;3.30;2.20;;;14.90;99.90;;;;;;6109607;23;20166;-73
2023/08/27 03:31:08;;;;;;;2.50;2.10;;;14.90;99.90;;;;;;6109949;23;20533;-72
2023/08/27 03:33:33;;;;;;;4.77;2.40;;;14.90;99.90;;;;;;6110126;23;20378;-72
2023/08/27 03:36:00;;;;;;;3.57;2.77;;;14.90;99.90;;;;;;6113908;23;20376;-72
2023/08/27 03:38:26;;;;;;;2.87;2.20;;;14.90;99.90;;;;;;6088392;23;20217;-72
2023/08/27 03:40:53;;;;;;;2.03;1.77;;;14.90;99.90;;;;;;6110039;23;20415;-73
2023/08/27 03:43:18;;;;;;;5.53;2.83;;;14.90;99.90;;;;;;6110846;23;20368;-72
2023/08/27 03:45:44;;;;;;;3.50;3.07;;;14.90;99.90;;;;;;6112096;23;20368;-72
2023/08/27 03:48:10;;;;;;;3.70;2.63;;;14.90;99.90;;;;;;6112618;23;20144;-74
2023/08/27 03:50:38;;;;;;;4.30;2.80;;;15.00;99.90;;;;;;6113090;23;20239;-72
2023/08/27 03:53:04;;;;;;;3.07;2.47;;;15.00;99.90;;;;;;6110698;23;20387;-72
2023/08/27 03:55:30;;;;;;;2.83;2.00;;;15.00;99.90;;;;;;6135603;23;20144;-71
2023/08/27 03:57:56;;;;;;;2.80;2.33;;;15.00;99.90;;;;;;6136566;23;20379;-72
2023/08/27 04:00:22;;;;;;;2.87;2.17;;;15.00;99.90;;;;;;6137322;23;20199;-71
2023/08/27 04:02:47;;;;;;;6.43;2.37;;;15.00;99.90;;;;;;6111174;23;20183;-73
2023/08/27 04:05:13;;;;;;;3.07;2.50;;;15.10;99.90;;;;;;6110801;23;20152;-71
2023/08/27 04:07:39;;;;;;;2.53;2.30;;;15.10;99.90;;;;;;6136760;23;20140;-73
2023/08/27 04:10:05;;;;;;;2.80;2.60;;;15.10;99.90;;;;;;6111007;23;20254;-72
2023/08/27 04:12:33;;;;;;;2.30;2.10;;;15.20;99.90;;;;;;6085953;23;20152;-72
2023/08/27 04:14:59;;;;;;;4.23;2.03;;;15.30;99.90;;;;;;6088493;23;20371;-72
2023/08/27 04:17:25;;;;;;;2.40;2.17;;;15.30;99.90;;;;;;6112515;23;20414;-74
2023/08/27 04:19:55;;;;;;;2.30;1.97;;;15.30;99.90;;;;;;6137490;23;20175;-72
2023/08/27 04:22:21;;;;;;;2.40;2.20;;;15.40;99.90;;;;;;6089101;23;20400;-71
2023/08/27 04:24:47;;;;;;;3.57;2.13;;;15.40;99.90;;;;;;6111720;23;20380;-72
2023/08/27 04:27:12;;;;;;;3.03;1.80;;;15.40;99.90;;;;;;6135981;23;20136;-73
2023/08/27 04:29:38;;;;;;;3.10;1.90;;;15.50;99.90;;;;;;6113012;23;20172;-71
2023/08/27 04:32:04;;;;;;;2.00;1.80;;;15.50;99.90;;;;;;6140747;23;20214;-70
2023/08/27 04:34:30;;;;;;;2.77;1.60;;;15.50;99.90;;;;;;6114124;23;20152;-73
2023/08/27 04:36:56;;;;;;;2.50;1.97;;;15.50;99.90;;;;;;6088290;23;20761;-72
2023/08/27 04:39:22;;;;;;;2.40;1.60;;;15.60;99.90;;;;;;6137155;23;20136;-71
2023/08/27 04:41:49;;;;;;;2.10;1.53;;;15.60;99.90;;;;;;6110283;23;20860;-71
2023/08/27 04:44:14;;;;;;;2.53;1.90;;;15.60;99.90;;;;;;6135762;23;20365;-72
2023/08/27 04:46:40;;;;;;;2.03;1.80;;;15.70;99.90;;;;;;6110683;23;20136;-72
2023/08/27 04:49:06;;;;;;;2.73;1.70;;;15.70;99.90;;;;;;6109797;23;20144;-71
2023/08/27 04:51:31;;;;;;;2.97;2.30;;;15.70;99.90;;;;;;6136318;23;20580;-72
2023/08/27 04:53:57;;;;;;;2.97;1.83;;;15.70;99.90;;;;;;6135900;23;20490;-71
2023/08/27 04:56:22;;;;;;;2.87;2.00;;;15.70;99.90;;;;;;6109640;23;20152;-70
2023/08/27 04:58:49;;;;;;;1.93;1.73;;;15.70;99.90;;;;;;6135649;23;20155;-73
2023/08/27 05:01:15;;;;;;;2.60;2.30;;;15.70;99.90;;;;;;6110794;23;20199;-72
2023/08/27 05:03:40;;;;;;;5.77;1.83;;;15.80;99.90;;;;;;6087114;23;20380;-71
2023/08/27 05:06:07;;;;;;;3.03;2.17;;;15.80;99.90;;;;;;6136433;23;20361;-72
2023/08/27 05:08:33;;;;;;;2.20;1.90;;;15.80;99.90;;;;;;6138271;23;20199;-73
2023/08/27 05:10:58;;;;;;;2.07;1.60;;;15.70;99.90;;;;;;6109755;23;20407;-72
2023/08/27 05:13:26;;;;;;;2.07;1.20;;;15.70;99.90;;;;;;6110962;23;20211;-71
2023/08/27 05:15:52;;;;;;;2.33;1.40;;;15.70;99.90;;;;;;6111499;23;20394;-72
2023/08/27 05:18:20;;;;;;;1.60;1.23;;;15.70;99.90;;;;;;6113461;23;20376;-73
2023/08/27 05:20:46;;;;;;;1.57;1.30;;;15.70;99.90;;;;;;6114182;23;20434;-72
2023/08/27 05:23:12;;;;;;;2.07;1.13;;;15.80;99.90;;;;;;6110818;23;20395;-71
2023/08/27 05:25:38;;;;;;;1.67;1.50;;;15.80;99.90;;;;;;6110968;23;20147;-71
2023/08/27 05:28:04;;;;;;;1.93;1.33;;;15.80;99.90;;;;;;6135702;23;20136;-72
2023/08/27 05:30:29;;;;;;;1.93;1.43;;;15.90;99.90;;;;;;6110167;23;20183;-72
2023/08/27 05:32:55;;;;;;;3.57;1.43;;;15.90;99.90;;;;;;6109359;23;20383;-72
2023/08/27 05:35:22;;;;;;;3.17;1.87;;;15.90;99.90;;;;;;6110602;23;20163;-72
2023/08/27 05:37:48;;;;;;;1.70;1.17;;;15.90;99.90;;;;;;6135890;23;20405;-72
2023/08/27 05:40:13;;;;;;;1.53;1.23;;;15.80;99.90;;;;;;6109605;23;20438;-72
2023/08/27 05:42:39;;;;;;;1.63;1.30;;;15.80;99.90;;;;;;6135340;23;20128;-72
2023/08/27 05:45:05;;;;;;;2.13;1.23;;;15.80;99.90;;;;;;6109727;23;20180;-73
2023/08/27 05:47:31;;;;;;;2.03;1.40;;;15.70;99.90;;;;;;6110472;23;20191;-73
2023/08/27 05:49:56;;;;;;;1.40;1.30;;;15.70;99.90;;;;;;6087347;23;20407;-72
2023/08/27 05:52:22;;;;;;;2.90;1.60;;;15.60;99.90;;;;;;6111616;23;20371;-73
2023/08/27 05:54:48;;;;;;;1.90;1.63;;;15.60;99.90;;;;;;6136667;23;20192;-72
2023/08/27 05:57:13;;;;;;;2.40;1.90;;;15.60;99.90;;;;;;6086205;23;20379;-72
2023/08/27 05:59:39;;;;;;;3.00;1.90;;;15.60;99.90;;;;;;6111330;23;20180;-72
2023/08/27 06:02:07;;;;;;;2.43;1.83;;;15.60;99.90;;;;;;6112322;23;20176;-74
2023/08/27 06:04:34;;;;;;;2.00;1.47;;;15.60;99.90;;;;;;6114354;23;20733;-72
2023/08/27 06:07:00;;;;;;;1.57;1.20;;;15.70;99.90;;;;;;6112890;23;20427;-73
2023/08/27 06:09:25;;;;;;;2.23;1.60;;;15.70;99.90;;;;;;6112914;23;20191;-72
2023/08/27 06:11:51;;;;;;;2.40;1.40;;;15.70;99.90;;;;;;6138121;23;20147;-73
2023/08/27 06:14:17;;;;;;;3.17;1.20;;;15.80;99.90;;;;;;6086911;23;20143;-75
2023/08/27 06:16:43;;;;;;;2.00;1.67;;;15.80;99.90;;;;;;6114281;23;20224;-72
2023/08/27 06:19:09;;;;;;;3.33;1.73;;;15.80;99.90;;;;;;6110699;23;20155;-72
2023/08/27 06:21:34;;;;;;;1.77;1.63;;;15.80;99.90;;;;;;6110121;23;20183;-72
2023/08/27 06:24:00;;;;;;;1.50;1.27;;;15.90;99.90;;;;;;6111198;23;20374;-74
2023/08/27 06:26:26;;;;;;;3.00;1.80;;;15.90;99.90;;;;;;6113085;23;20144;-73
2023/08/27 06:28:51;;;;;;;1.50;1.13;;;16.00;99.90;;;;;;6087290;23;20152;-72
2023/08/27 06:31:18;;;;;;;1.70;1.30;;;16.10;99.90;;;;;;6089074;23;20172;-73
2023/08/27 06:33:45;;;;;;;1.97;1.33;;;16.20;99.90;;;;;;6112064;23;20678;-72
2023/08/27 06:36:10;;;;;;;1.43;1.30;;;16.30;99.90;;;;;;6111908;23;20391;-72
2023/08/27 06:38:36;;;;;;;2.70;1.63;;;16.40;99.90;;;;;;6111768;23;20148;-73
2023/08/27 06:41:02;;;;;;;1.97;1.07;;;16.50;99.90;;;;;;6137494;23;20176;-73
2023/08/27 06:43:28;;;;;;;2.30;1.50;;;16.60;99.90;;;;;;6109465;23;20148;-73
2023/08/27 06:45:56;;;;;;;2.90;1.87;;;16.70;99.90;;;;;;6110861;23;20168;-74
2023/08/27 06:48:23;;;;;;;2.97;1.77;;;16.90;99.90;;;;;;6110386;23;20432;-75
2023/08/27 06:50:49;;;;;;;1.63;1.53;;;17.00;99.90;;;;;;6135717;23;20474;-71
2023/08/27 06:53:15;;;;;;;2.87;1.70;;;17.20;99.90;;;;;;6137088;23;20522;-73
2023/08/27 06:55:41;;;;;;;2.57;1.33;;;17.30;99.90;;;;;;6110209;23;20372;-72
2023/08/27 06:58:07;;;;;;;2.53;1.53;;;17.50;99.90;;;;;;6136122;23;20369;-74
2023/08/27 07:00:34;;;;;;;2.23;1.47;;;17.60;99.90;;;;;;6137338;23;20190;-72
2023/08/27 07:02:59;;;;;;;2.90;1.30;;;17.60;99.90;;;;;;6114397;23;20430;-72
2023/08/27 07:05:25;;;;;;;1.40;1.20;;;17.60;99.90;;;;;;6140668;23;20372;-72
2023/08/27 07:07:51;;;;;;;3.10;1.50;;;17.60;99.90;;;;;;6114083;23;20146;-72
2023/08/27 07:10:17;;;;;;;4.03;1.73;;;17.60;99.90;;;;;;6112734;23;20479;-74
2023/08/27 07:12:44;;;;;;;2.07;1.40;;;17.60;99.90;;;;;;6111331;23;20287;-74
2023/08/27 07:15:13;;;;;;;2.30;1.70;;;17.60;99.90;;;;;;6110742;23;20552;-73
2023/08/27 07:17:40;;;;;;;2.83;1.33;;;17.70;99.90;;;;;;6135758;23;20434;-74
2023/08/27 07:20:11;;;;;;;2.10;1.33;;;17.80;99.90;;;;;;6113232;23;20459;-73
2023/08/27 07:22:37;;;;;;;1.80;1.50;;;18.10;99.90;;;;;;6089735;23;20379;-74
2023/08/27 07:25:05;;;;;;;2.63;1.77;;;18.30;99.90;;;;;;6112672;23;20382;-72
2023/08/27 07:27:33;;;;;;;2.43;1.40;;;18.40;99.90;;;;;;6114135;23;20453;-73
2023/08/27 07:29:59;;;;;;;1.83;1.23;;;18.40;99.90;;;;;;6111152;23;20462;-74
2023/08/27 07:32:25;;;;;;;2.30;1.43;;;18.40;99.90;;;;;;6087117;23;20373;-76
2023/08/27 07:34:50;;;;;;;1.70;1.50;;;18.40;99.90;;;;;;6111028;23;20534;-73
2023/08/27 07:37:18;;;;;;;1.90;1.23;;;18.40;99.90;;;;;;6112746;23;20185;-72
2023/08/27 07:39:44;;;;;;;2.37;1.47;;;18.30;99.90;;;;;;6111019;23;20413;-73
2023/08/27 07:42:10;;;;;;;2.13;1.40;;;18.20;99.90;;;;;;6136001;23;20640;-71
2023/08/27 07:44:35;;;;;;;3.63;2.00;;;18.30;99.90;;;;;;6110756;23;20380;-74
2023/08/27 07:47:01;;;;;;;1.70;1.20;;;18.30;99.90;;;;;;6086720;23;20372;-74
2023/08/27 07:49:28;;;;;;;2.87;1.50;;;18.40;99.90;;;;;;6111154;23;20152;-72
2023/08/27 07:51:53;;;;;;;3.10;2.00;;;18.50;99.90;;;;;;6136581;23;20421;-75
2023/08/27 07:54:19;;;;;;;2.47;1.83;;;18.50;99.90;;;;;;6110060;23;20160;-73
2023/08/27 07:56:45;;;;;;;4.20;2.93;;;18.40;99.90;;;;;;6137581;23;20176;-72
2023/08/27 07:59:10;;;;;;;4.17;2.10;;;18.50;99.90;;;;;;6111267;23;20537;-73
2023/08/27 08:01:36;;;;;;;3.60;1.80;;;18.50;99.90;;;;;;6113367;23;20187;-73
2023/08/27 08:04:03;;;;;;;2.33;1.60;;;18.80;99.90;;;;;;6114531;23;20222;-73
2023/08/27 08:06:28;;;;;;;3.10;2.50;;;19.00;99.90;;;;;;6140482;23;20146;-73
2023/08/27 08:08:55;;;;;;;3.70;2.07;;;19.00;99.90;;;;;;6141159;23;20882;-72
2023/08/27 08:11:21;;;;;;;2.77;2.27;;;19.10;99.90;;;;;;6113087;23;20274;-74
2023/08/27 08:13:47;;;;;;;5.70;2.27;;;19.20;99.90;;;;;;6112395;23;20372;-74
2023/08/27 08:16:12;;;;;;;5.60;2.70;;;19.20;99.90;;;;;;6138793;23;20147;-74
2023/08/27 08:18:38;;;;;;;3.90;2.27;;;19.20;99.90;;;;;;6138000;23;20132;-75
2023/08/27 08:21:04;;;;;;;11.10;2.43;;;19.00;99.90;;;;;;6140349;23;20183;-73
2023/08/27 08:23:29;;;;;;;3.30;2.20;;;18.90;99.90;;;;;;6140901;23;20143;-74
2023/08/27 08:25:57;;;;;;;2.30;1.80;;;19.00;99.90;;;;;;6138831;23;20364;-74
2023/08/27 08:28:24;;;;;;;3.10;2.57;;;19.00;99.90;;;;;;6139812;23;20128;-73
2023/08/27 08:30:50;;;;;;;2.20;1.83;;;19.20;99.90;;;;;;6139120;23;20498;-72
2023/08/27 08:33:16;;;;;;;2.20;1.57;;;19.40;99.90;;;;;;6112818;23;20372;-76
2023/08/27 08:35:42;;;;;;;2.13;1.50;;;19.50;99.90;;;;;;6114903;23;20352;-74
2023/08/27 08:38:08;;;;;;;2.43;1.90;;;19.70;99.90;;;;;;6148906;23;20423;-76
2023/08/27 08:40:51;;;;;;;3.83;1.60;;;19.80;99.90;;;;;;6114055;23;20483;-72
2023/08/27 08:43:25;;;;;;;2.80;1.80;;;19.90;98.90;;;;;;6139922;23;20136;-75
2023/08/27 08:46:03;;;;;;;3.53;2.23;;;19.90;97.70;;;;;;6116732;23;20372;-74
2023/08/27 08:48:39;;;;;;;3.80;1.87;;;19.90;97.40;;;;;;6142039;23;20431;-73
2023/08/27 08:51:06;;;;;;;2.80;1.87;;;19.90;98.00;;;;;;6115847;23;20395;-71
2023/08/27 08:53:36;;;;;;;1.77;1.53;;;20.00;98.00;;;;;;6142109;23;20445;-75
2023/08/27 08:56:06;;;;;;;2.20;1.80;;;20.00;98.00;;;;;;6143176;23;20379;-75
2023/08/27 08:58:35;;;;;;;2.90;1.70;;;20.10;97.50;;;;;;6091971;23;20450;-76
2023/08/27 09:01:02;;;;;;;2.53;1.73;;;20.10;96.90;;;;;;6116284;23;20462;-76
2023/08/27 09:03:32;;;;;;;2.80;1.87;;;20.20;96.80;;;;;;6114506;23;20809;-74
2023/08/27 09:05:59;;;;;;;2.50;1.50;;;20.30;96.50;;;;;;6139284;23;20360;-74
2023/08/27 09:08:26;;;;;;;3.87;2.57;;;20.30;95.60;;;;;;6113385;23;20856;-72
2023/08/27 09:10:53;;;;;;;3.07;2.03;;;20.30;93.90;;;;;;6087151;23;20411;-73
2023/08/27 09:13:20;;;;;;;8.23;2.77;;;20.20;94.70;;;;;;6112003;23;20428;-72
2023/08/27 09:15:47;;;;;;;2.60;2.33;;;20.30;94.50;;;;;;6138660;23;20371;-72
2023/08/27 09:18:13;;;;;;;8.10;2.60;;;20.20;94.50;;;;;;6137938;23;20426;-74
2023/08/27 09:20:39;;;;;;;4.07;2.40;;;20.20;94.70;;;;;;6075022;23;20436;-73
2023/08/27 09:23:08;;;;;;;4.37;2.43;;;20.20;94.60;;;;;;6076352;23;20794;-71
2023/08/27 09:25:34;;;;;;;3.80;2.37;;;20.10;93.80;;;;;;6077462;23;20153;-74
2023/08/27 09:28:00;;;;;;;2.80;2.30;;;20.10;94.60;;;;;;6076970;23;20806;-72
2023/08/27 09:30:27;;;;;;;4.37;2.47;;;20.10;94.20;;;;;;6054234;23;20449;-73
2023/08/27 09:32:54;;;;;;;3.83;2.20;;;20.10;94.50;;;;;;6080194;23;20134;-74
2023/08/27 09:35:19;;;;;;;2.90;1.90;;;20.20;94.90;;;;;;6029156;23;20703;-72
2023/08/27 09:37:45;;;;;;;2.17;1.80;;;20.20;95.10;;;;;;6076283;23;20389;-72
2023/08/27 09:40:13;;;;;;;2.13;1.77;;;20.20;95.00;;;;;;6076355;23;20236;-71
2023/08/27 09:42:39;;;;;;;2.53;2.20;;;20.20;94.50;;;;;;6077096;23;20138;-73
2023/08/27 09:45:06;;;;;;;2.63;1.70;;;20.10;94.40;;;;;;6055425;23;20362;-73
2023/08/27 09:47:33;;;;;;;3.80;2.20;;;20.00;94.00;;;;;;6029933;23;20149;-74
2023/08/27 09:50:02;;;;;;;3.20;2.00;;;19.90;91.60;;;;;;6052277;23;20405;-74
2023/08/27 09:52:28;;;;;;;2.80;2.40;;;19.90;91.30;;;;;;6055850;23;20388;-74
2023/08/27 09:54:54;;;;;;;3.30;1.90;;;19.90;91.00;;;;;;6114315;23;20360;-73
2023/08/27 09:57:20;;;;;;;8.57;4.67;;;20.00;91.10;;;;;;6117443;23;20215;-74
2023/08/27 09:59:46;;;;;;;4.33;2.97;;;20.00;91.20;;;;;;6115057;23;20258;-75
2023/08/27 10:02:13;;;;;;;3.30;3.00;;;20.00;91.50;;;;;;6139695;23;20367;-74
2023/08/27 10:04:49;;;;;;;7.83;4.67;;;20.00;91.70;;;;;;6139989;23;20434;-74
2023/08/27 10:07:15;;;;;;;4.53;3.50;;;19.90;92.50;;;;;;6112181;23;20376;-75
2023/08/27 10:09:41;;;;;;;2.90;2.37;;;20.10;92.90;;;;;;6137435;23;20415;-72
2023/08/27 10:12:11;;;;;;;2.70;2.50;;;20.40;92.70;;;;;;6136662;23;20371;-76
2023/08/27 10:14:41;;;;;;;3.93;2.33;;;20.70;90.80;;;;;;6113360;23;20399;-72
2023/08/27 10:17:06;;;;;;;6.33;3.47;;;21.10;85.30;;;;;;6112959;23;20784;-75
2023/08/27 10:19:35;;;;;;;4.60;2.83;;;21.40;80.20;;;;;;6138590;23;20455;-74
2023/08/27 10:22:03;;;;;;;4.07;2.43;;;21.70;78.80;;;;;;6141373;23;20544;-73
2023/08/27 10:24:30;;;;;;;3.93;2.53;;;21.80;74.10;;;;;;6140675;23;20387;-75
2023/08/27 10:27:03;;;;;;;3.07;2.43;;;21.90;74.10;;;;;;6117447;23;20607;-73
2023/08/27 10:29:30;;;;;;;5.67;3.03;;;22.00;73.30;;;;;;6143056;23;20383;-76
2023/08/27 10:31:56;;;;;;;2.97;2.63;;;22.00;71.10;;;;;;6092286;23;20357;-75
2023/08/27 10:34:28;;;;;;;2.30;1.67;;;22.00;71.40;;;;;;6089970;23;20622;-74
2023/08/27 10:36:59;;;;;;;2.00;1.63;;;22.00;71.80;;;;;;6138008;23;20375;-74
2023/08/27 10:39:29;;;;;;;2.67;1.60;;;22.10;71.20;;;;;;6092433;23;20381;-73
2023/08/27 10:41:55;;;;;;;2.27;1.70;;;22.40;70.80;;;;;;6138893;23;20411;-76
2023/08/27 10:44:21;;;;;;;2.90;2.10;;;22.80;68.20;;;;;;6112893;23;20367;-73
2023/08/27 10:47:06;;;;;;;2.53;1.60;;;23.10;64.00;;;;;;6114408;23;20419;-76
2023/08/27 10:49:38;;;;;;;2.07;1.60;;;23.30;61.80;;;;;;6138247;23;20168;-76
2023/08/27 10:52:26;;;;;;;2.90;2.00;;;23.50;60.70;;;;;;6112474;23;20406;-74
2023/08/27 10:55:01;;;;;;;2.63;2.10;;;23.50;58.60;;;;;;6138622;23;20422;-73
2023/08/27 10:57:27;;;;;;;2.37;1.90;;;23.50;57.50;;;;;;6113335;23;20835;-75
2023/08/27 11:00:08;;;;;;;2.33;2.10;;;23.60;58.10;;;;;;6093029;23;20490;-73
2023/08/27 11:03:12;;;;;;;5.03;2.13;;;23.50;56.60;;;;;;6140215;23;20367;-75
2023/08/27 11:05:38;;;;;;;3.10;1.60;;;23.20;57.50;;;;;;6139014;23;20626;-74
2023/08/27 11:08:14;;;;;;;2.90;1.83;;;22.90;57.50;;;;;;6113547;23;20430;-73
2023/08/27 11:10:40;;;;;;;2.27;1.63;;;22.60;56.60;;;;;;6113232;23;20203;-71
2023/08/27 11:13:05;;;;;;;2.43;1.63;;;22.40;57.20;;;;;;6139601;23;20360;-73
2023/08/27 11:15:34;;;;;;;2.33;1.50;;;22.30;56.90;;;;;;6116752;23;20131;-76
2023/08/27 11:18:19;;;;;;;3.00;1.70;;;22.10;57.30;;;;;;6141220;23;20145;-76
2023/08/27 11:20:45;;;;;;;2.67;1.60;;;21.80;57.50;;;;;;6138842;23;20434;-73
2023/08/27 11:23:11;;;;;;;2.87;1.90;;;21.70;57.60;;;;;;6112078;23;20642;-74
2023/08/27 11:25:36;;;;;;;2.17;1.37;;;21.70;58.10;;;;;;6138242;23;20475;-73
2023/08/27 11:28:04;;;;;;;4.40;1.70;;;21.80;58.40;;;;;;6142893;23;20143;-72
2023/08/27 11:30:30;;;;;;;2.47;1.50;;;22.20;57.60;;;;;;6147782;23;20167;-74
2023/08/27 11:32:57;;;;;;;1.97;1.30;;;22.40;57.30;;;;;;6139199;23;20427;-75
2023/08/27 11:35:26;;;;;;;1.93;1.40;;;22.60;57.20;;;;;;6113319;23;20364;-74
2023/08/27 11:37:56;;;;;;;2.00;1.40;;;22.70;56.90;;;;;;6138206;23;20427;-74
2023/08/27 11:40:26;;;;;;;1.77;1.30;;;22.70;57.10;;;;;;6113547;23;20459;-73
2023/08/27 11:42:53;;;;;;;2.03;1.23;;;22.70;56.30;;;;;;6141119;23;20463;-74
2023/08/27 11:45:34;;;;;;;3.50;2.83;;;22.80;56.30;;;;;;6138074;23;20347;-73
2023/08/27 11:48:05;;;;;;;3.40;1.87;;;22.90;56.00;;;;;;6112703;23;20356;-75
2023/08/27 11:50:32;;;;;;;2.60;1.60;;;22.90;55.40;;;;;;6141227;23;20395;-74
2023/08/27 11:52:58;;;;;;;1.90;1.43;;;23.00;55.30;;;;;;6138318;23;20436;-74
2023/08/27 11:55:25;;;;;;;1.80;1.47;;;23.20;55.20;;;;;;6139994;23;20356;-75
2023/08/27 11:57:53;;;;;;;2.03;1.60;;;23.30;54.80;;;;;;6143254;23;20192;-77
2023/08/27 12:00:20;;;;;;;2.97;1.93;;;23.40;54.70;;;;;;6092090;23;20443;-75
2023/08/27 12:02:46;;;;;;;2.13;1.93;;;23.60;54.30;;;;;;6146454;23;20360;-75
2023/08/27 12:05:12;;;;;;;2.53;1.37;;;23.60;54.10;;;;;;6143751;23;20367;-75
2023/08/27 12:07:38;;;;;;;2.77;1.53;;;23.50;53.90;;;;;;6142335;23;20136;-75
2023/08/27 12:10:08;;;;;;;2.30;1.53;;;23.40;53.60;;;;;;6145744;23;20419;-76
2023/08/27 12:12:42;;;;;;;2.17;1.30;;;23.10;52.30;;;;;;6097363;23;20177;-76
2023/08/27 12:15:08;;;;;;;3.40;1.87;;;22.70;53.20;;;;;;6146105;23;20426;-77
2023/08/27 12:17:36;;;;;;;2.30;1.50;;;22.50;54.80;;;;;;6143547;23;20367;-76
2023/08/27 12:20:07;;;;;;;2.27;1.43;;;22.30;55.60;;;;;;6144251;23;20907;-76
2023/08/27 12:22:46;;;;;;;2.63;1.27;;;22.40;55.90;;;;;;6116900;23;20376;-75
2023/08/27 12:25:13;;;;;;;3.10;1.40;;;22.70;55.40;;;;;;6143980;23;20371;-74
2023/08/27 12:27:40;;;;;;;2.60;1.43;;;23.10;55.10;;;;;;6144155;23;20392;-76
2023/08/27 12:30:06;;;;;;;2.50;1.50;;;23.50;54.20;;;;;;6143311;23;20431;-77
2023/08/27 12:32:34;;;;;;;1.93;1.27;;;23.80;53.30;;;;;;6120781;23;20460;-75
2023/08/27 12:35:00;;;;;;;2.17;1.50;;;23.70;51.80;;;;;;6095840;23;20451;-77
2023/08/27 12:37:26;;;;;;;1.90;1.13;;;23.40;50.20;;;;;;6145182;23;20367;-77
2023/08/27 12:39:51;;;;;;;2.97;1.30;;;23.00;50.10;;;;;;6115233;23;20399;-75
2023/08/27 12:42:17;;;;;;;4.60;1.73;;;22.50;51.70;;;;;;6143150;23;20160;-77
2023/08/27 12:44:46;;;;;;;2.77;1.50;;;22.10;53.20;;;;;;6120466;23;20140;-77
2023/08/27 12:47:12;;;;;;;3.50;1.43;;;22.00;53.80;;;;;;6119066;23;20380;-77
2023/08/27 12:49:38;;;;;;;1.87;1.10;;;21.90;54.10;;;;;;6143731;23;20387;-74